createdAt,value
2018-07-04T00:01:57.035Z,5.83
2018-07-04T00:04:36.227Z,3.80
2018-07-04T00:07:15.089Z,6.07
2018-07-04T00:09:54.190Z,4.50
2018-07-04T00:12:33.459Z,3.97
2018-07-04T00:15:12.494Z,7.03
2018-07-04T00:17:51.333Z,5.90
2018-07-04T00:20:36.125Z,7.23
2018-07-04T00:23:15.157Z,5.50
2018-07-04T00:25:54.056Z,5.70
2018-07-04T00:28:33.056Z,6.97
2018-07-04T00:31:12.260Z,5.07
2018-07-04T00:33:51.311Z,4.50
2018-07-04T00:36:30.190Z,6.00
2018-07-04T00:39:09.060Z,6.47
2018-07-04T00:41:49.029Z,6.60
2018-07-04T00:44:28.749Z,7.03
2018-07-04T00:47:07.777Z,5.83
2018-07-04T00:49:46.589Z,10.07
2018-07-04T00:52:25.539Z,6.83
2018-07-04T00:55:04.656Z,5.50
2018-07-04T00:57:43.710Z,5.87
2018-07-04T01:00:23.043Z,6.13
2018-07-04T01:03:02.014Z,5.63
2018-07-04T01:05:41.099Z,6.00
2018-07-04T01:08:20.185Z,4.30
2018-07-04T01:10:59.256Z,6.70
2018-07-04T01:13:38.258Z,6.10
2018-07-04T01:16:17.240Z,4.70
2018-07-04T01:18:56.366Z,5.23
2018-07-04T01:21:29.493Z,6.00
2018-07-04T01:24:08.412Z,7.70
2018-07-04T01:26:47.288Z,5.47
2018-07-04T01:29:26.427Z,9.57
2018-07-04T01:32:05.656Z,7.90
2018-07-04T01:34:44.850Z,7.20
2018-07-04T01:37:23.764Z,9.03
2018-07-04T01:40:02.730Z,6.40
2018-07-04T01:42:41.617Z,6.53
2018-07-04T01:45:20.726Z,5.17
2018-07-04T01:47:59.664Z,5.10
2018-07-04T01:50:38.505Z,7.53
2018-07-04T01:53:17.445Z,6.77
2018-07-04T01:55:56.297Z,5.80
2018-07-04T01:58:35.257Z,9.17
2018-07-04T02:01:14.314Z,7.77
2018-07-04T02:03:53.430Z,6.33
2018-07-04T02:06:32.369Z,6.67
2018-07-04T02:09:11.492Z,7.67
2018-07-04T02:11:50.269Z,6.43
2018-07-04T02:14:29.320Z,11.97
2018-07-04T02:17:08.484Z,10.93
2018-07-04T02:19:47.668Z,8.47
2018-07-04T02:22:26.608Z,6.33
2018-07-04T02:25:05.554Z,7.63
2018-07-04T02:27:44.384Z,5.77
2018-07-04T02:30:23.471Z,6.20
2018-07-04T02:33:02.391Z,6.87
2018-07-04T02:35:41.330Z,5.87
2018-07-04T02:38:20.276Z,9.80
2018-07-04T02:40:59.295Z,7.17
2018-07-04T02:43:38.336Z,9.57
2018-07-04T02:46:22.924Z,7.50
2018-07-04T02:49:02.161Z,9.60
2018-07-04T02:51:41.208Z,8.90
2018-07-04T02:54:20.220Z,10.37
2018-07-04T02:56:59.092Z,9.23
2018-07-04T02:59:37.928Z,7.20
2018-07-04T03:02:17.033Z,7.63
2018-07-04T03:04:55.938Z,6.47
2018-07-04T03:07:34.804Z,10.60
2018-07-04T03:10:13.880Z,11.13
2018-07-04T03:12:52.861Z,10.53
2018-07-04T03:15:31.797Z,6.90
2018-07-04T03:18:10.737Z,7.23
2018-07-04T03:20:49.635Z,10.80
2018-07-04T03:23:28.551Z,9.57
2018-07-04T03:26:07.579Z,10.23
2018-07-04T03:28:46.572Z,10.67
2018-07-04T03:31:25.565Z,7.13
2018-07-04T03:34:04.657Z,9.60
2018-07-04T03:36:43.593Z,14.57
2018-07-04T03:39:22.699Z,9.17
2018-07-04T03:42:01.725Z,11.60
2018-07-04T03:44:40.757Z,10.93
2018-07-04T03:47:19.705Z,10.90
2018-07-04T03:49:58.652Z,10.03
2018-07-04T03:52:37.569Z,10.47
2018-07-04T03:55:16.504Z,10.83
2018-07-04T03:57:55.351Z,13.80
2018-07-04T04:00:34.141Z,8.73
2018-07-04T04:03:13.222Z,12.97
2018-07-04T04:05:52.115Z,12.80
2018-07-04T04:08:31.173Z,12.53
2018-07-04T04:11:04.450Z,8.60
2018-07-04T04:13:43.425Z,11.57
2018-07-04T04:16:22.349Z,10.63
2018-07-04T04:19:01.224Z,12.10
2018-07-04T04:21:40.174Z,10.97
2018-07-04T04:24:19.287Z,12.23
2018-07-04T04:26:58.276Z,12.80
2018-07-04T04:29:37.208Z,12.47
2018-07-04T04:32:16.173Z,10.93
2018-07-04T04:34:55.313Z,11.77
2018-07-04T04:37:34.265Z,11.90
2018-07-04T04:40:13.173Z,11.87
2018-07-04T04:42:52.040Z,14.63
2018-07-04T04:45:30.985Z,10.10
2018-07-04T04:48:09.865Z,9.97
2018-07-04T04:50:49.105Z,9.17
2018-07-04T04:53:28.008Z,12.47
2018-07-04T04:56:07.110Z,14.77
2018-07-04T04:58:45.967Z,11.60
2018-07-04T05:01:24.842Z,12.30
2018-07-04T05:04:03.821Z,9.30
2018-07-04T05:06:42.732Z,11.60
2018-07-04T05:09:21.726Z,11.80
2018-07-04T05:12:00.672Z,11.07
2018-07-04T05:14:39.790Z,14.37
2018-07-04T05:17:18.834Z,11.83
2018-07-04T05:19:57.810Z,11.17
2018-07-04T05:22:36.721Z,11.07
2018-07-04T05:25:15.745Z,11.47
2018-07-04T05:27:54.908Z,9.70
2018-07-04T05:30:33.956Z,12.03
2018-07-04T05:33:12.949Z,11.50
2018-07-04T05:35:51.925Z,11.30
2018-07-04T05:38:30.848Z,14.13
2018-07-04T05:41:09.817Z,14.17
2018-07-04T05:43:48.727Z,14.10
2018-07-04T05:46:27.790Z,12.93
2018-07-04T05:49:06.682Z,9.87
2018-07-04T05:51:45.730Z,12.70
2018-07-04T05:54:24.670Z,10.60
2018-07-04T05:57:03.675Z,15.97
2018-07-04T05:59:42.600Z,14.27
2018-07-04T06:02:21.689Z,12.90
2018-07-04T06:05:00.689Z,10.63
2018-07-04T06:07:39.686Z,12.43
2018-07-04T06:10:18.565Z,10.70
2018-07-04T06:12:57.638Z,12.67
2018-07-04T06:15:36.478Z,10.67
2018-07-04T06:18:15.542Z,10.63
2018-07-04T06:20:54.829Z,10.00
2018-07-04T06:23:33.908Z,10.50
2018-07-04T06:26:12.869Z,9.97
2018-07-04T06:28:51.705Z,8.77
2018-07-04T06:31:30.695Z,11.93
2018-07-04T06:34:09.937Z,11.47
2018-07-04T06:36:48.853Z,9.87
2018-07-04T06:39:15.429Z,12.30
2018-07-04T06:41:42.042Z,9.80
2018-07-04T06:44:08.581Z,9.87
2018-07-04T06:46:35.078Z,13.73
2018-07-04T06:49:01.680Z,15.77
2018-07-04T06:51:28.156Z,10.27
2018-07-04T06:53:54.643Z,11.53
2018-07-04T06:56:21.152Z,9.03
2018-07-04T06:58:47.688Z,10.23
2018-07-04T07:01:14.164Z,16.13
2018-07-04T07:03:53.188Z,14.17
2018-07-04T07:06:32.239Z,11.03
2018-07-04T07:09:11.091Z,10.23
2018-07-04T07:11:50.190Z,12.97
2018-07-04T07:14:29.138Z,8.63
2018-07-04T07:17:08.122Z,11.43
2018-07-04T07:19:46.857Z,7.03
2018-07-04T07:22:25.856Z,6.43
2018-07-04T07:25:04.760Z,9.30
2018-07-04T07:27:43.740Z,6.63
2018-07-04T07:30:22.793Z,6.33
2018-07-04T07:33:01.999Z,7.90
2018-07-04T07:35:41.063Z,5.40
2018-07-04T07:38:19.987Z,4.90
2018-07-04T07:40:58.836Z,4.62
2018-07-04T07:43:37.652Z,3.30
2018-07-04T07:46:16.708Z,5.85
2018-07-04T07:48:55.736Z,5.55
2018-07-04T07:51:28.909Z,3.83
2018-07-04T07:54:07.831Z,4.67
2018-07-04T07:56:46.940Z,3.90
2018-07-04T07:59:25.975Z,3.80
2018-07-04T08:02:04.817Z,4.42
2018-07-04T08:04:43.829Z,5.00
2018-07-04T08:07:22.816Z,5.35
2018-07-04T08:10:01.805Z,5.42
2018-07-04T08:12:40.688Z,6.03
2018-07-04T08:15:19.640Z,5.47
2018-07-04T08:17:58.452Z,4.20
2018-07-04T08:20:37.270Z,4.22
2018-07-04T08:23:16.431Z,3.35
2018-07-04T08:25:55.506Z,3.33
2018-07-04T08:28:34.647Z,3.27
2018-07-04T08:31:13.485Z,4.40
2018-07-04T08:33:52.364Z,3.45
2018-07-04T08:36:31.357Z,6.92
2018-07-04T08:39:10.345Z,3.55
2018-07-04T08:41:49.134Z,5.70
2018-07-04T08:44:27.969Z,3.55
2018-07-04T08:47:07.163Z,5.28
2018-07-04T08:49:46.022Z,8.23
2018-07-04T08:52:25.191Z,5.85
2018-07-04T08:55:04.163Z,3.75
2018-07-04T08:57:43.313Z,5.15
2018-07-04T09:00:22.314Z,6.62
2018-07-04T09:03:01.287Z,6.53
2018-07-04T09:05:40.364Z,11.55
2018-07-04T09:08:19.364Z,15.35
2018-07-04T09:10:58.349Z,7.53
2018-07-04T09:13:37.315Z,12.05
2018-07-04T09:16:16.290Z,10.75
2018-07-04T09:18:55.317Z,12.37
2018-07-04T09:21:28.329Z,10.58
2018-07-04T09:24:07.394Z,8.55
2018-07-04T09:26:46.343Z,14.63
2018-07-04T09:29:25.421Z,13.95
2018-07-04T09:32:04.381Z,6.85
2018-07-04T09:34:43.333Z,9.05
2018-07-04T09:37:22.326Z,12.78
2018-07-04T09:40:01.316Z,9.58
2018-07-04T09:42:40.255Z,9.60
2018-07-04T09:45:19.298Z,10.23
2018-07-04T09:47:58.304Z,7.22
2018-07-04T09:50:37.386Z,7.45
2018-07-04T09:53:16.601Z,8.53
2018-07-04T09:55:55.609Z,8.40
2018-07-04T09:58:34.668Z,9.80
2018-07-04T10:01:19.304Z,7.12
2018-07-04T10:03:58.333Z,6.42
2018-07-04T10:06:37.249Z,6.72
2018-07-04T10:09:16.294Z,8.25
2018-07-04T10:11:55.168Z,5.58
2018-07-04T10:14:34.038Z,8.58
2018-07-04T10:17:12.938Z,12.18
2018-07-04T10:19:51.899Z,10.13
2018-07-04T10:22:30.739Z,7.47
2018-07-04T10:25:09.776Z,8.18
2018-07-04T10:27:48.901Z,8.23
2018-07-04T10:30:28.034Z,6.25
2018-07-04T10:33:06.884Z,9.53
2018-07-04T10:35:45.862Z,7.75
2018-07-04T10:38:24.686Z,6.28
2018-07-04T10:41:03.565Z,4.05
2018-07-04T10:43:42.520Z,11.08
2018-07-04T10:46:21.309Z,10.95
2018-07-04T10:49:00.369Z,7.12
2018-07-04T10:51:39.417Z,9.90
2018-07-04T10:54:18.676Z,9.18
2018-07-04T10:56:57.513Z,7.90
2018-07-04T10:59:36.487Z,9.73
2018-07-04T11:02:15.326Z,7.55
2018-07-04T11:04:54.255Z,7.78
2018-07-04T11:07:33.217Z,10.20
2018-07-04T11:10:12.082Z,9.45
2018-07-04T11:12:51.137Z,10.90
2018-07-04T11:15:30.241Z,9.05
2018-07-04T11:18:09.312Z,7.35
2018-07-04T11:20:48.259Z,9.63
2018-07-04T11:23:27.093Z,9.65
2018-07-04T11:26:05.933Z,8.68
2018-07-04T11:28:45.014Z,7.80
2018-07-04T11:31:24.097Z,7.30
2018-07-04T11:34:03.038Z,8.65
2018-07-04T11:36:41.977Z,11.50
2018-07-04T11:39:20.945Z,7.00
2018-07-04T11:41:59.978Z,8.15
2018-07-04T11:44:38.910Z,14.07
2018-07-04T11:47:05.415Z,9.10
2018-07-04T11:49:32.163Z,8.98
2018-07-04T11:51:58.698Z,8.83
2018-07-04T11:54:25.286Z,12.90
2018-07-04T11:56:51.941Z,9.80
2018-07-04T11:59:18.610Z,9.60
2018-07-04T12:01:45.291Z,12.20
2018-07-04T12:04:24.621Z,10.78
2018-07-04T12:07:08.422Z,7.58
2018-07-04T12:09:36.276Z,8.13
2018-07-04T12:12:02.894Z,7.80
2018-07-04T12:14:30.066Z,11.63
2018-07-04T12:16:56.956Z,17.85
2018-07-04T12:19:23.974Z,11.85
2018-07-04T12:21:50.601Z,11.20
2018-07-04T12:24:17.217Z,14.93
2018-07-04T12:26:43.897Z,12.55
2018-07-04T12:29:10.901Z,13.25
2018-07-04T12:31:37.876Z,14.83
2018-07-04T12:34:04.525Z,15.55
2018-07-04T12:36:31.169Z,9.95
2018-07-04T12:38:57.763Z,10.85
2018-07-04T12:41:24.385Z,12.07
2018-07-04T12:43:51.098Z,11.35
2018-07-04T12:46:17.624Z,8.23
2018-07-04T12:48:44.343Z,7.25
2018-07-04T12:51:11.071Z,11.03
2018-07-04T12:53:37.813Z,11.57
2018-07-04T12:56:16.899Z,14.03
2018-07-04T12:58:56.182Z,11.35
2018-07-04T13:01:35.229Z,7.12
2018-07-04T13:04:14.260Z,6.08
2018-07-04T13:06:53.267Z,6.17
2018-07-04T13:09:32.362Z,4.03
2018-07-04T13:12:11.649Z,3.77
2018-07-04T13:14:50.887Z,4.90
2018-07-04T13:17:30.027Z,7.03
2018-07-04T13:20:09.276Z,6.67
2018-07-04T13:22:48.463Z,6.92
2018-07-04T13:25:27.646Z,8.45
2018-07-04T13:28:06.651Z,4.65
2018-07-04T13:30:45.821Z,3.00
2018-07-04T13:33:24.995Z,7.03
2018-07-04T13:36:04.061Z,5.30
2018-07-04T13:38:43.291Z,5.33
2018-07-04T13:41:22.544Z,5.85
2018-07-04T13:44:01.558Z,4.22
2018-07-04T13:46:40.779Z,5.03
2018-07-04T13:49:19.992Z,4.75
2018-07-04T13:51:59.185Z,3.67
2018-07-04T13:54:38.212Z,8.13
2018-07-04T13:57:17.241Z,11.05
2018-07-04T13:59:56.448Z,5.35
2018-07-04T14:02:35.587Z,5.10
2018-07-04T14:05:14.644Z,10.15
2018-07-04T14:07:53.706Z,7.17
2018-07-04T14:10:32.885Z,5.67
2018-07-04T14:13:11.925Z,6.15
2018-07-04T14:15:51.023Z,5.15
2018-07-04T14:18:29.995Z,9.13
2018-07-04T14:21:09.074Z,6.60
2018-07-04T14:23:48.244Z,6.33
2018-07-04T14:26:27.271Z,7.42
2018-07-04T14:29:06.617Z,8.90
2018-07-04T14:31:45.802Z,7.65
2018-07-04T14:34:25.031Z,6.37
2018-07-04T14:37:04.184Z,8.70
2018-07-04T14:39:43.268Z,8.05
2018-07-04T14:42:22.326Z,10.53
2018-07-04T14:45:01.414Z,8.33
2018-07-04T14:47:40.495Z,13.13
2018-07-04T14:50:19.603Z,9.25
2018-07-04T14:52:58.718Z,10.70
2018-07-04T14:55:37.884Z,9.48
2018-07-04T14:58:17.143Z,8.88
2018-07-04T15:00:56.238Z,9.60
2018-07-04T15:03:35.458Z,12.82
2018-07-04T15:06:14.561Z,11.43
2018-07-04T15:08:53.661Z,9.75
2018-07-04T15:11:32.807Z,10.90
2018-07-04T15:14:12.008Z,10.32
2018-07-04T15:16:51.181Z,9.40
2018-07-04T15:19:30.525Z,12.95
2018-07-04T15:22:09.801Z,10.58
2018-07-04T15:24:48.900Z,13.45
2018-07-04T15:27:28.158Z,9.90
2018-07-04T15:30:07.128Z,14.98
2018-07-04T15:32:46.346Z,11.40
2018-07-04T15:35:25.392Z,16.45
2018-07-04T15:38:04.713Z,10.93
2018-07-04T15:40:43.874Z,16.73
2018-07-04T15:43:23.071Z,9.93
2018-07-04T15:46:02.282Z,9.98
2018-07-04T15:48:41.826Z,12.40
2018-07-04T15:51:21.717Z,11.85
2018-07-04T15:54:00.676Z,14.00
2018-07-04T15:56:39.835Z,11.80
2018-07-04T15:59:19.052Z,9.03
2018-07-04T16:01:58.177Z,8.93
2018-07-04T16:04:37.418Z,9.43
2018-07-04T16:07:16.624Z,8.93
2018-07-04T16:09:55.924Z,10.28
2018-07-04T16:12:35.061Z,8.90
2018-07-04T16:15:14.310Z,7.90
2018-07-04T16:17:53.387Z,8.63
2018-07-04T16:20:32.720Z,13.38
2018-07-04T16:23:11.818Z,13.10
2018-07-04T16:25:50.964Z,9.33
2018-07-04T16:28:30.029Z,10.23
2018-07-04T16:31:09.220Z,11.08
2018-07-04T16:33:48.481Z,8.73
2018-07-04T16:36:27.875Z,10.05
2018-07-04T16:39:07.135Z,8.75
2018-07-04T16:41:46.183Z,12.95
2018-07-04T16:44:25.375Z,10.45
2018-07-04T16:47:04.560Z,9.75
2018-07-04T16:49:43.639Z,10.88
2018-07-04T16:52:22.874Z,10.13
2018-07-04T16:55:01.867Z,11.63
2018-07-04T16:57:41.055Z,10.38
2018-07-04T17:00:19.998Z,11.57
2018-07-04T17:02:59.140Z,10.33
2018-07-04T17:05:38.288Z,9.15
2018-07-04T17:08:17.346Z,10.32
2018-07-04T17:10:56.476Z,9.83
2018-07-04T17:13:35.827Z,8.55
2018-07-04T17:16:15.179Z,9.73
2018-07-04T17:18:54.050Z,8.13
2018-07-04T17:21:33.211Z,8.48
2018-07-04T17:24:12.436Z,9.93
2018-07-04T17:26:51.616Z,8.58
2018-07-04T17:29:31.566Z,12.45
2018-07-04T17:32:10.775Z,10.98
2018-07-04T17:34:49.829Z,8.75
2018-07-04T17:37:29.102Z,8.13
2018-07-04T17:40:08.281Z,12.18
2018-07-04T17:42:47.480Z,10.70
2018-07-04T17:45:26.508Z,10.08
2018-07-04T17:48:05.589Z,12.67
2018-07-04T17:50:44.723Z,9.10
2018-07-04T17:53:23.743Z,12.35
2018-07-04T17:56:03.073Z,12.90
2018-07-04T17:58:42.236Z,8.03
2018-07-04T18:01:21.377Z,9.83
2018-07-04T18:04:00.613Z,10.65
2018-07-04T18:06:39.620Z,8.20
2018-07-04T18:09:12.871Z,12.23
2018-07-04T18:11:52.173Z,13.10
2018-07-04T18:14:31.160Z,9.80
2018-07-04T18:17:10.202Z,15.97
2018-07-04T18:19:49.395Z,12.87
2018-07-04T18:22:28.659Z,11.33
2018-07-04T18:25:07.928Z,10.57
2018-07-04T18:27:47.436Z,9.53
2018-07-04T18:30:26.917Z,12.40
2018-07-04T18:33:06.146Z,8.67
2018-07-04T18:35:45.307Z,11.57
2018-07-04T18:38:24.322Z,11.30
2018-07-04T18:41:03.537Z,11.23
2018-07-04T18:43:42.705Z,10.40
2018-07-04T18:46:21.902Z,8.53
2018-07-04T18:49:01.090Z,8.60
2018-07-04T18:51:40.014Z,10.33
2018-07-04T18:54:19.035Z,8.13
2018-07-04T18:56:57.989Z,11.60
2018-07-04T18:59:37.260Z,11.60
2018-07-04T19:02:16.376Z,8.37
2018-07-04T19:04:55.570Z,10.77
2018-07-04T19:07:34.699Z,10.63
2018-07-04T19:10:13.770Z,9.03
2018-07-04T19:12:52.823Z,7.77
2018-07-04T19:15:32.044Z,9.60
2018-07-04T19:18:11.232Z,8.77
2018-07-04T19:20:50.369Z,12.70
2018-07-04T19:23:29.728Z,10.80
2018-07-04T19:26:09.176Z,8.80
2018-07-04T19:28:48.395Z,7.47
2018-07-04T19:31:27.452Z,9.60
2018-07-04T19:34:06.677Z,8.63
2018-07-04T19:36:45.855Z,9.43
2018-07-04T19:39:24.876Z,7.80
2018-07-04T19:42:03.827Z,7.27
2018-07-04T19:44:37.138Z,12.17
2018-07-04T19:47:17.301Z,8.57
2018-07-04T19:49:56.649Z,8.80
2018-07-04T19:52:35.832Z,10.00
2018-07-04T19:55:15.235Z,7.50
2018-07-04T19:57:54.680Z,7.87
2018-07-04T20:00:33.761Z,6.83
2018-07-04T20:03:12.873Z,11.50
2018-07-04T20:05:52.114Z,6.97
2018-07-04T20:08:31.216Z,7.63
2018-07-04T20:11:10.416Z,8.47
2018-07-04T20:13:49.485Z,6.47
2018-07-04T20:16:28.722Z,7.63
2018-07-04T20:19:07.904Z,8.10
2018-07-04T20:21:46.970Z,6.97
2018-07-04T20:24:26.104Z,7.50
2018-07-04T20:27:05.305Z,8.90
2018-07-04T20:29:44.525Z,6.60
2018-07-04T20:32:23.684Z,7.53
2018-07-04T20:35:02.761Z,7.57
2018-07-04T20:37:41.937Z,9.63
2018-07-04T20:40:21.005Z,7.70
2018-07-04T20:43:00.110Z,7.23
2018-07-04T20:45:39.258Z,7.83
2018-07-04T20:48:18.328Z,7.00
2018-07-04T20:50:57.589Z,8.07
2018-07-04T20:53:36.649Z,9.80
2018-07-04T20:56:15.938Z,10.30
2018-07-04T20:58:55.342Z,10.37
2018-07-04T21:01:34.435Z,7.80
2018-07-04T21:04:13.703Z,9.53
2018-07-04T21:06:52.679Z,7.87
2018-07-04T21:09:31.952Z,6.90
2018-07-04T21:12:10.999Z,8.20
2018-07-04T21:14:50.056Z,8.23
2018-07-04T21:17:29.103Z,7.33
2018-07-04T21:20:08.325Z,7.20
2018-07-04T21:22:47.555Z,7.23
2018-07-04T21:25:26.681Z,8.07
2018-07-04T21:28:05.957Z,7.93
2018-07-04T21:30:45.081Z,7.87
2018-07-04T21:33:24.120Z,7.50
2018-07-04T21:36:03.428Z,13.10
2018-07-04T21:38:42.528Z,8.20
2018-07-04T21:41:15.863Z,8.10
2018-07-04T21:43:54.821Z,8.03
2018-07-04T21:46:33.955Z,8.37
2018-07-04T21:49:12.980Z,7.93
2018-07-04T21:51:52.059Z,9.40
2018-07-04T21:54:31.085Z,9.07
2018-07-04T21:57:10.221Z,10.57
2018-07-04T21:59:49.330Z,9.17
2018-07-04T22:02:28.327Z,9.47
2018-07-04T22:05:07.457Z,7.63
2018-07-04T22:07:46.527Z,10.40
2018-07-04T22:10:25.508Z,8.93
2018-07-04T22:13:04.512Z,9.50
2018-07-04T22:15:43.626Z,5.57
2018-07-04T22:18:22.642Z,9.27
2018-07-04T22:21:01.743Z,11.23
2018-07-04T22:23:40.782Z,10.53
2018-07-04T22:26:20.069Z,7.93
2018-07-04T22:28:59.248Z,9.40
2018-07-04T22:31:38.502Z,11.03
2018-07-04T22:34:17.822Z,9.30
2018-07-04T22:36:57.069Z,6.13
2018-07-04T22:39:36.213Z,7.63
2018-07-04T22:42:15.432Z,5.67
2018-07-04T22:44:54.622Z,6.57
2018-07-04T22:47:33.532Z,8.27
2018-07-04T22:50:12.448Z,6.60
2018-07-04T22:52:51.743Z,8.53
2018-07-04T22:55:30.867Z,10.27
2018-07-04T22:58:09.924Z,8.80
2018-07-04T23:00:48.914Z,5.70
2018-07-04T23:03:28.113Z,7.57
2018-07-04T23:06:07.384Z,5.53
2018-07-04T23:08:46.444Z,7.33
2018-07-04T23:11:25.401Z,8.00
2018-07-04T23:14:04.766Z,7.27
2018-07-04T23:16:44.005Z,7.90
2018-07-04T23:19:22.997Z,8.13
2018-07-04T23:22:01.989Z,5.80
2018-07-04T23:24:41.198Z,7.03
2018-07-04T23:27:20.291Z,6.97
2018-07-04T23:29:59.390Z,9.07
2018-07-04T23:32:38.308Z,7.20
2018-07-04T23:35:17.448Z,3.60
2018-07-04T23:37:56.758Z,6.87
2018-07-04T23:40:35.977Z,4.07
2018-07-04T23:43:14.986Z,6.77
2018-07-04T23:45:54.095Z,6.13
2018-07-04T23:48:33.139Z,5.83
2018-07-04T23:51:12.327Z,10.50
2018-07-04T23:53:51.448Z,3.07
2018-07-04T23:56:30.478Z,4.80
2018-07-04T23:59:09.549Z,4.00
